createdAt,value
2023-02-19T00:01:57.195Z,10.17
2023-02-19T00:04:05.866Z,10.17
2023-02-19T00:06:11.347Z,10.18
2023-02-19T00:08:13.978Z,10.15
2023-02-19T00:10:16.756Z,10.13
2023-02-19T00:12:19.364Z,10.10
2023-02-19T00:14:22.181Z,10.09
2023-02-19T00:16:31.216Z,10.09
2023-02-19T00:18:34.214Z,10.10
2023-02-19T00:20:37.005Z,10.10
2023-02-19T00:22:40.405Z,10.10
2023-02-19T00:24:43.139Z,10.10
2023-02-19T00:26:46.763Z,10.09
2023-02-19T00:28:51.494Z,10.09
2023-02-19T00:30:54.348Z,10.09
2023-02-19T00:32:57.341Z,10.08
2023-02-19T00:35:00.151Z,10.09
2023-02-19T00:37:03.004Z,10.10
2023-02-19T00:39:07.197Z,10.10
2023-02-19T00:41:21.005Z,10.09
2023-02-19T00:43:24.381Z,10.09
2023-02-19T00:45:27.176Z,10.11
2023-02-19T00:47:30.586Z,10.10
2023-02-19T00:49:33.257Z,10.08
2023-02-19T00:51:38.185Z,10.07
2023-02-19T00:53:41.189Z,10.05
2023-02-19T00:55:43.851Z,10.05
2023-02-19T00:57:46.750Z,10.06
2023-02-19T00:59:49.363Z,10.07
2023-02-19T01:01:52.011Z,10.08
2023-02-19T01:03:54.575Z,10.08
2023-02-19T01:05:57.258Z,10.08
2023-02-19T01:08:00.091Z,10.08
2023-02-19T01:10:03.052Z,10.08
2023-02-19T01:12:06.643Z,10.08
2023-02-19T01:14:09.944Z,10.08
2023-02-19T01:16:16.440Z,10.08
2023-02-19T01:18:19.056Z,10.09
2023-02-19T01:20:21.726Z,10.07
2023-02-19T01:22:24.396Z,10.08
2023-02-19T01:24:27.348Z,10.08
2023-02-19T01:26:33.950Z,10.08
2023-02-19T01:28:38.632Z,10.09
2023-02-19T01:30:41.403Z,10.09
2023-02-19T01:32:44.048Z,10.10
2023-02-19T01:34:46.895Z,10.10
2023-02-19T01:36:49.731Z,10.08
2023-02-19T01:38:52.550Z,10.04
2023-02-19T01:40:57.583Z,10.04
2023-02-19T01:43:00.481Z,10.05
2023-02-19T01:45:21.610Z,10.09
2023-02-19T01:47:24.383Z,10.10
2023-02-19T01:49:38.828Z,10.09
2023-02-19T01:51:46.283Z,10.11
2023-02-19T01:53:56.059Z,10.10
2023-02-19T01:56:01.371Z,10.09
2023-02-19T01:58:04.488Z,10.04
2023-02-19T02:00:11.960Z,10.03
2023-02-19T02:02:18.091Z,10.01
2023-02-19T02:04:21.337Z,10.02
2023-02-19T02:06:28.962Z,10.04
2023-02-19T02:08:52.343Z,10.06
2023-02-19T02:10:57.738Z,10.05
2023-02-19T02:13:00.442Z,10.04
2023-02-19T02:15:03.362Z,10.04
2023-02-19T02:17:44.480Z,10.02
2023-02-19T02:20:03.187Z,9.98
2023-02-19T02:22:29.521Z,9.95
2023-02-19T02:25:02.909Z,9.94
2023-02-19T02:27:22.368Z,9.93
2023-02-19T02:30:08.436Z,9.93
2023-02-19T02:32:22.085Z,9.95
2023-02-19T02:34:34.417Z,9.95
2023-02-19T02:36:41.968Z,9.95
2023-02-19T02:38:47.301Z,9.95
2023-02-19T02:40:52.232Z,9.92
2023-02-19T02:42:58.458Z,9.90
2023-02-19T02:45:36.261Z,9.88
2023-02-19T02:48:28.432Z,9.87
2023-02-19T02:50:41.473Z,9.85
2023-02-19T02:53:07.086Z,9.85
2023-02-19T02:55:12.570Z,9.86
2023-02-19T02:57:17.022Z,9.86
2023-02-19T02:59:27.082Z,9.86
2023-02-19T03:02:08.491Z,9.85
2023-02-19T03:04:20.072Z,9.82
2023-02-19T03:06:26.086Z,9.81
2023-02-19T03:08:38.201Z,9.81
2023-02-19T03:10:58.788Z,9.79
2023-02-19T03:13:24.398Z,9.77
2023-02-19T03:15:53.338Z,9.77
2023-02-19T03:18:20.196Z,9.77
2023-02-19T03:20:25.022Z,9.79
2023-02-19T03:22:33.446Z,9.80
2023-02-19T03:25:00.136Z,9.82
2023-02-19T03:27:05.222Z,9.84
2023-02-19T03:29:23.592Z,9.85
2023-02-19T03:31:30.112Z,9.84
2023-02-19T03:33:35.124Z,9.84
2023-02-19T03:35:53.205Z,9.83
2023-02-19T03:38:31.823Z,9.86
2023-02-19T03:40:44.063Z,9.90
2023-02-19T03:43:04.042Z,9.94
2023-02-19T03:45:28.355Z,9.96
2023-02-19T03:47:41.803Z,9.95
2023-02-19T03:49:53.298Z,9.93
2023-02-19T03:52:38.097Z,9.92
2023-02-19T03:54:57.772Z,9.89
2023-02-19T03:57:06.258Z,9.87
2023-02-19T03:59:15.194Z,9.87
2023-02-19T04:01:30.246Z,9.87
2023-02-19T04:03:43.825Z,9.89
2023-02-19T04:05:51.097Z,9.92
2023-02-19T04:07:59.080Z,9.93
2023-02-19T04:10:07.678Z,9.93
2023-02-19T04:12:14.693Z,9.93
2023-02-19T04:14:31.427Z,9.96
2023-02-19T04:16:38.825Z,9.97
2023-02-19T04:18:46.589Z,9.97
2023-02-19T04:20:50.468Z,9.97
2023-02-19T04:22:53.289Z,9.97
2023-02-19T04:24:56.484Z,9.99
2023-02-19T04:26:59.827Z,10.00
2023-02-19T04:29:02.584Z,10.01
2023-02-19T04:31:06.102Z,10.02
2023-02-19T04:33:08.863Z,10.03
2023-02-19T04:35:11.502Z,10.03
2023-02-19T04:37:14.220Z,10.04
2023-02-19T04:39:16.793Z,10.04
2023-02-19T04:41:19.412Z,10.02
2023-02-19T04:43:22.264Z,10.02
2023-02-19T04:45:25.300Z,10.02
2023-02-19T04:47:27.986Z,10.03
2023-02-19T04:49:30.883Z,10.06
2023-02-19T04:51:33.725Z,10.06
2023-02-19T04:53:37.443Z,10.05
2023-02-19T04:55:40.098Z,10.04
2023-02-19T04:57:42.784Z,10.03
2023-02-19T04:59:46.680Z,10.03
2023-02-19T05:01:49.294Z,10.03
2023-02-19T05:03:52.556Z,10.01
2023-02-19T05:05:55.166Z,9.98
2023-02-19T05:07:57.800Z,9.96
2023-02-19T05:10:02.042Z,9.97
2023-02-19T05:12:04.798Z,9.99
2023-02-19T05:14:07.450Z,10.00
2023-02-19T05:16:16.101Z,10.01
2023-02-19T05:18:18.849Z,10.02
2023-02-19T05:20:22.999Z,10.01
2023-02-19T05:22:25.738Z,10.00
2023-02-19T05:24:31.512Z,9.97
2023-02-19T05:26:34.981Z,9.95
2023-02-19T05:28:37.943Z,9.92
2023-02-19T05:30:40.695Z,9.92
2023-02-19T05:32:43.733Z,9.94
2023-02-19T05:34:46.432Z,9.96
2023-02-19T05:36:50.497Z,9.96
2023-02-19T05:38:57.163Z,9.94
2023-02-19T05:41:16.620Z,9.94
2023-02-19T05:43:20.585Z,9.90
2023-02-19T05:45:23.332Z,9.88
2023-02-19T05:47:26.096Z,9.87
2023-02-19T05:49:28.817Z,9.87
2023-02-19T05:51:31.705Z,9.89
2023-02-19T05:53:34.552Z,9.91
2023-02-19T05:55:37.351Z,9.93
2023-02-19T05:57:45.130Z,9.94
2023-02-19T05:59:47.737Z,9.95
2023-02-19T06:01:52.037Z,9.94
2023-02-19T06:03:57.217Z,9.93
2023-02-19T06:06:00.874Z,9.93
2023-02-19T06:08:04.161Z,9.94
2023-02-19T06:10:08.560Z,9.96
2023-02-19T06:12:11.716Z,9.97
2023-02-19T06:14:15.002Z,9.97
2023-02-19T06:16:18.773Z,9.99
2023-02-19T06:18:21.352Z,10.02
2023-02-19T06:20:26.065Z,10.02
2023-02-19T06:22:29.072Z,10.04
2023-02-19T06:24:31.870Z,10.04
2023-02-19T06:26:34.975Z,10.04
2023-02-19T06:28:38.589Z,10.02
2023-02-19T06:30:42.419Z,10.01
2023-02-19T06:32:45.056Z,10.00
2023-02-19T06:34:47.735Z,10.00
2023-02-19T06:36:50.485Z,10.02
2023-02-19T06:38:53.045Z,10.04
2023-02-19T06:40:59.970Z,10.06
2023-02-19T06:43:03.189Z,10.06
2023-02-19T06:45:06.535Z,10.07
2023-02-19T06:47:09.293Z,10.09
2023-02-19T06:49:12.069Z,10.09
2023-02-19T06:51:23.798Z,10.08
2023-02-19T06:53:27.560Z,10.07
2023-02-19T06:55:30.284Z,10.08
2023-02-19T06:57:33.038Z,10.05
2023-02-19T06:59:35.595Z,10.05
2023-02-19T07:01:40.469Z,10.03
2023-02-19T07:03:43.579Z,10.01
2023-02-19T07:05:46.175Z,10.01
2023-02-19T07:07:49.935Z,10.02
2023-02-19T07:09:52.458Z,10.02
2023-02-19T07:11:55.037Z,10.00
2023-02-19T07:14:03.530Z,9.97
2023-02-19T07:16:08.823Z,9.95
2023-02-19T07:18:11.571Z,9.96
2023-02-19T07:20:14.511Z,9.96
2023-02-19T07:22:17.485Z,9.98
2023-02-19T07:24:21.629Z,9.99
2023-02-19T07:26:25.928Z,9.99
2023-02-19T07:28:29.540Z,9.99
2023-02-19T07:30:32.255Z,9.98
2023-02-19T07:32:35.307Z,9.98
2023-02-19T07:34:38.365Z,9.98
2023-02-19T07:36:41.134Z,9.98
2023-02-19T07:38:44.889Z,9.98
2023-02-19T07:40:58.820Z,9.98
2023-02-19T07:43:02.130Z,9.98
2023-02-19T07:45:05.488Z,9.96
2023-02-19T07:47:08.201Z,9.93
2023-02-19T07:49:10.806Z,9.92
2023-02-19T07:51:18.831Z,9.93
2023-02-19T07:53:23.945Z,9.91
2023-02-19T07:55:26.643Z,9.93
2023-02-19T07:57:31.151Z,9.95
2023-02-19T07:59:35.158Z,9.94
2023-02-19T08:01:56.680Z,9.93
2023-02-19T08:03:59.928Z,9.98
2023-02-19T08:06:02.605Z,9.99
2023-02-19T08:08:10.669Z,9.99
2023-02-19T08:10:32.115Z,9.99
2023-02-19T08:12:53.563Z,10.01
2023-02-19T08:14:56.834Z,10.02
2023-02-19T08:17:00.373Z,10.04
2023-02-19T08:19:03.343Z,10.05
2023-02-19T08:21:06.623Z,10.06
2023-02-19T08:23:10.250Z,10.07
2023-02-19T08:25:13.323Z,10.08
2023-02-19T08:27:15.979Z,10.07
2023-02-19T08:29:19.217Z,10.05
2023-02-19T08:31:22.499Z,10.03
2023-02-19T08:33:25.686Z,10.02
2023-02-19T08:35:28.707Z,10.02
2023-02-19T08:37:31.737Z,10.02
2023-02-19T08:39:34.504Z,10.05
2023-02-19T08:41:37.191Z,10.06
2023-02-19T08:43:41.637Z,10.06
2023-02-19T08:45:47.287Z,10.04
2023-02-19T08:47:49.998Z,10.05
2023-02-19T08:49:52.717Z,10.07
2023-02-19T08:51:55.367Z,10.05
2023-02-19T08:53:58.837Z,10.09
2023-02-19T08:56:06.673Z,10.10
2023-02-19T08:58:10.946Z,10.10
2023-02-19T09:00:14.598Z,10.14
2023-02-19T09:02:17.662Z,10.17
2023-02-19T09:04:21.355Z,10.16
2023-02-19T09:06:23.994Z,10.17
2023-02-19T09:08:27.016Z,10.18
2023-02-19T09:10:29.592Z,10.20
2023-02-19T09:12:33.531Z,10.20
2023-02-19T09:14:36.788Z,10.20
2023-02-19T09:16:40.062Z,10.18
2023-02-19T09:18:43.637Z,10.20
2023-02-19T09:20:46.240Z,10.22
2023-02-19T09:22:51.402Z,10.24
2023-02-19T09:24:54.145Z,10.26
2023-02-19T09:26:56.916Z,10.25
2023-02-19T09:28:59.604Z,10.26
2023-02-19T09:31:07.853Z,10.25
2023-02-19T09:33:13.246Z,10.24
2023-02-19T09:35:16.452Z,10.19
2023-02-19T09:37:19.330Z,10.15
2023-02-19T09:39:22.223Z,10.12
2023-02-19T09:41:30.078Z,10.09
2023-02-19T09:43:33.776Z,10.09
2023-02-19T09:45:38.073Z,10.09
2023-02-19T09:47:41.432Z,10.10
2023-02-19T09:49:51.585Z,10.12
2023-02-19T09:52:00.209Z,10.14
2023-02-19T09:54:07.161Z,10.12
2023-02-19T09:56:10.216Z,10.12
2023-02-19T09:58:27.411Z,10.12
2023-02-19T10:00:34.338Z,10.12
2023-02-19T10:02:37.436Z,10.14
2023-02-19T10:04:43.297Z,10.18
2023-02-19T10:06:47.684Z,10.19
2023-02-19T10:09:05.718Z,10.22
2023-02-19T10:11:13.230Z,10.24
2023-02-19T10:13:20.469Z,10.27
2023-02-19T10:15:31.807Z,10.31
2023-02-19T10:17:37.818Z,10.34
2023-02-19T10:19:41.078Z,10.37
2023-02-19T10:21:44.167Z,10.37
2023-02-19T10:23:51.843Z,10.39
2023-02-19T10:25:58.994Z,10.44
2023-02-19T10:28:02.714Z,10.48
2023-02-19T10:30:07.252Z,10.52
2023-02-19T10:32:25.362Z,10.58
2023-02-19T10:34:28.411Z,10.61
2023-02-19T10:36:40.064Z,10.64
2023-02-19T10:38:47.764Z,10.67
2023-02-19T10:40:58.877Z,10.67
2023-02-19T10:43:05.512Z,10.66
2023-02-19T10:45:22.917Z,10.66
2023-02-19T10:47:27.822Z,10.67
2023-02-19T10:49:38.531Z,10.72
2023-02-19T10:51:44.078Z,10.80
2023-02-19T10:53:49.979Z,10.83
2023-02-19T10:56:10.824Z,10.87
2023-02-19T10:58:26.189Z,10.90
2023-02-19T11:00:30.588Z,10.86
2023-02-19T11:02:34.623Z,10.83
2023-02-19T11:04:39.481Z,10.80
2023-02-19T11:06:43.584Z,10.81
2023-02-19T11:08:59.986Z,10.81
2023-02-19T11:11:03.342Z,10.84
2023-02-19T11:13:16.124Z,10.87
2023-02-19T11:15:24.080Z,10.89
2023-02-19T11:17:30.154Z,10.89
2023-02-19T11:19:41.888Z,10.91
2023-02-19T11:21:44.549Z,10.91
2023-02-19T11:23:49.327Z,10.90
2023-02-19T11:25:54.113Z,10.87
2023-02-19T11:28:08.234Z,10.83
2023-02-19T11:30:22.698Z,10.77
2023-02-19T11:32:29.362Z,10.70
2023-02-19T11:34:34.955Z,10.66
2023-02-19T11:36:38.527Z,10.66
2023-02-19T11:38:42.333Z,10.65
2023-02-19T11:40:59.091Z,10.66
2023-02-19T11:43:20.855Z,10.67
2023-02-19T11:45:35.706Z,10.67
2023-02-19T11:48:10.837Z,10.66
2023-02-19T11:50:26.652Z,10.64
2023-02-19T11:52:34.849Z,10.66
2023-02-19T11:54:52.051Z,10.66
2023-02-19T11:57:27.331Z,10.64
2023-02-19T11:59:44.857Z,10.62
2023-02-19T12:02:26.563Z,10.62
2023-02-19T12:04:36.864Z,10.59
2023-02-19T12:06:46.925Z,10.58
2023-02-19T12:09:21.458Z,10.58
2023-02-19T12:11:36.363Z,10.55
2023-02-19T12:14:08.648Z,10.55
2023-02-19T12:16:29.536Z,10.57
2023-02-19T12:18:56.429Z,10.57
2023-02-19T12:21:25.511Z,10.53
2023-02-19T12:23:46.427Z,10.48
2023-02-19T12:26:12.406Z,10.41
2023-02-19T12:29:04.274Z,10.24
2023-02-19T12:31:35.096Z,10.04
2023-02-19T12:34:07.153Z,9.88
2023-02-19T12:36:43.836Z,9.74
2023-02-19T12:39:02.666Z,9.62
2023-02-19T12:41:11.808Z,9.59
2023-02-19T12:43:18.386Z,9.60
2023-02-19T12:45:42.393Z,9.63
2023-02-19T12:48:00.052Z,9.66
2023-02-19T12:50:15.483Z,9.68
2023-02-19T12:52:31.750Z,9.68
2023-02-19T12:54:56.288Z,9.67
2023-02-19T12:57:23.056Z,9.73
2023-02-19T12:59:38.056Z,9.82
2023-02-19T13:01:49.960Z,9.88
2023-02-19T13:04:17.828Z,9.93
2023-02-19T13:06:50.062Z,10.00
2023-02-19T13:09:10.745Z,9.99
2023-02-19T13:11:21.572Z,9.95
2023-02-19T13:13:34.677Z,9.95
2023-02-19T13:15:48.522Z,9.95
2023-02-19T13:17:54.831Z,9.92
2023-02-19T13:20:13.640Z,9.93
2023-02-19T13:22:50.442Z,9.96
2023-02-19T13:24:55.493Z,9.96
2023-02-19T13:27:29.917Z,9.94
2023-02-19T13:30:30.204Z,9.95
2023-02-19T13:33:00.888Z,9.90
2023-02-19T13:35:34.673Z,9.86
2023-02-19T13:37:37.755Z,9.82
2023-02-19T13:39:53.239Z,9.83
2023-02-19T13:41:57.439Z,9.87
2023-02-19T13:44:06.392Z,9.88
2023-02-19T13:46:12.315Z,9.91
2023-02-19T13:48:27.115Z,9.93
2023-02-19T13:50:34.580Z,9.91
2023-02-19T13:52:39.517Z,9.90
2023-02-19T13:54:42.286Z,9.93
2023-02-19T13:56:45.186Z,9.96
2023-02-19T13:59:14.136Z,10.00
2023-02-19T14:01:18.482Z,10.03
2023-02-19T14:03:30.687Z,10.01
2023-02-19T14:06:02.749Z,10.03
2023-02-19T14:08:09.322Z,10.03
2023-02-19T14:10:15.140Z,9.99
2023-02-19T14:12:21.008Z,9.97
2023-02-19T14:14:27.118Z,9.95
2023-02-19T14:16:37.732Z,9.95
2023-02-19T14:18:46.023Z,9.97
2023-02-19T14:20:49.201Z,9.98
2023-02-19T14:23:01.671Z,10.00
2023-02-19T14:25:18.495Z,10.01
2023-02-19T14:27:21.699Z,10.04
2023-02-19T14:29:24.813Z,10.08
2023-02-19T14:31:33.915Z,10.09
2023-02-19T14:33:43.321Z,10.10
2023-02-19T14:35:49.278Z,10.11
2023-02-19T14:37:55.459Z,10.10
2023-02-19T14:39:58.855Z,10.11
2023-02-19T14:42:33.486Z,10.16
2023-02-19T14:44:52.234Z,10.23
2023-02-19T14:47:07.339Z,10.25
2023-02-19T14:49:24.683Z,10.25
2023-02-19T14:51:39.213Z,10.24
2023-02-19T14:53:44.696Z,10.27
2023-02-19T14:55:49.022Z,10.26
2023-02-19T14:57:58.283Z,10.25
2023-02-19T15:00:24.089Z,10.24
2023-02-19T15:02:30.978Z,10.24
2023-02-19T15:04:37.628Z,10.24
2023-02-19T15:06:40.292Z,10.24
2023-02-19T15:08:51.449Z,10.23
2023-02-19T15:10:55.767Z,10.27
2023-02-19T15:13:06.465Z,10.27
2023-02-19T15:15:22.736Z,10.25
2023-02-19T15:17:29.124Z,10.18
2023-02-19T15:19:36.581Z,10.13
2023-02-19T15:21:47.022Z,10.06
2023-02-19T15:23:50.442Z,10.01
2023-02-19T15:25:53.619Z,9.95
2023-02-19T15:27:56.857Z,9.90
2023-02-19T15:30:00.247Z,9.86
2023-02-19T15:32:17.554Z,9.86
2023-02-19T15:34:23.603Z,9.83
2023-02-19T15:36:34.831Z,9.77
2023-02-19T15:38:37.606Z,9.75
2023-02-19T15:40:45.009Z,9.73
2023-02-19T15:42:47.836Z,9.68
2023-02-19T15:45:18.719Z,9.65
2023-02-19T15:47:29.736Z,9.63
2023-02-19T15:49:51.550Z,9.61
2023-02-19T15:52:01.554Z,9.61
2023-02-19T15:54:14.585Z,9.62
2023-02-19T15:56:29.369Z,9.65
2023-02-19T15:58:38.023Z,9.64
2023-02-19T16:00:53.092Z,9.64
2023-02-19T16:02:56.073Z,9.66
2023-02-19T16:05:02.134Z,9.65
2023-02-19T16:07:05.146Z,9.64
2023-02-19T16:09:25.251Z,9.60
2023-02-19T16:11:37.480Z,9.58
2023-02-19T16:13:40.199Z,9.55
2023-02-19T16:15:57.802Z,9.54
2023-02-19T16:18:00.827Z,9.56
2023-02-19T16:20:04.394Z,9.55
2023-02-19T16:22:10.365Z,9.55
2023-02-19T16:24:28.587Z,9.56
2023-02-19T16:26:53.079Z,9.58
2023-02-19T16:28:56.850Z,9.59
2023-02-19T16:31:03.816Z,9.60
2023-02-19T16:33:20.103Z,9.60
2023-02-19T16:35:40.134Z,9.59
2023-02-19T16:37:57.951Z,9.59
2023-02-19T16:40:09.554Z,9.57
2023-02-19T16:42:14.727Z,9.58
2023-02-19T16:44:21.134Z,9.59
2023-02-19T16:46:24.822Z,9.62
2023-02-19T16:48:28.336Z,9.61
2023-02-19T16:50:31.301Z,9.59
2023-02-19T16:52:38.897Z,9.59
2023-02-19T16:54:41.548Z,9.59
2023-02-19T16:56:44.187Z,9.58
2023-02-19T16:58:47.084Z,9.56
2023-02-19T17:00:50.992Z,9.56
2023-02-19T17:02:57.390Z,9.54
2023-02-19T17:05:00.727Z,9.55
2023-02-19T17:07:06.169Z,9.58
2023-02-19T17:09:09.238Z,9.60
2023-02-19T17:11:14.987Z,9.63
2023-02-19T17:13:17.756Z,9.63
2023-02-19T17:15:20.970Z,9.65
2023-02-19T17:17:23.669Z,9.66
2023-02-19T17:19:26.389Z,9.66
2023-02-19T17:21:31.986Z,9.66
2023-02-19T17:23:35.298Z,9.66
2023-02-19T17:25:38.431Z,9.67
2023-02-19T17:27:41.299Z,9.67
2023-02-19T17:29:46.305Z,9.68
2023-02-19T17:31:49.312Z,9.71
2023-02-19T17:33:52.102Z,9.72
2023-02-19T17:35:55.302Z,9.73
2023-02-19T17:37:57.982Z,9.72
2023-02-19T17:40:00.602Z,9.71
2023-02-19T17:42:03.439Z,9.71
2023-02-19T17:44:06.354Z,9.71
2023-02-19T17:46:15.570Z,9.70
2023-02-19T17:48:19.331Z,9.69
2023-02-19T17:50:25.226Z,9.67
2023-02-19T17:52:29.336Z,9.66
2023-02-19T17:54:32.018Z,9.67
2023-02-19T17:56:35.080Z,9.68
2023-02-19T17:58:37.801Z,9.69
2023-02-19T18:00:40.671Z,9.68
2023-02-19T18:02:43.513Z,9.68
2023-02-19T18:04:46.241Z,9.68
2023-02-19T18:06:48.933Z,9.68
2023-02-19T18:08:53.552Z,9.66
2023-02-19T18:10:56.459Z,9.64
2023-02-19T18:12:59.409Z,9.64
2023-02-19T18:15:02.511Z,9.62
2023-02-19T18:17:05.594Z,9.60
2023-02-19T18:19:11.317Z,9.59
2023-02-19T18:21:14.394Z,9.61
2023-02-19T18:23:20.671Z,9.62
2023-02-19T18:25:23.786Z,9.63
2023-02-19T18:27:26.529Z,9.63
2023-02-19T18:29:31.044Z,9.64
2023-02-19T18:31:34.146Z,9.63
2023-02-19T18:33:36.891Z,9.61
2023-02-19T18:35:40.092Z,9.60
2023-02-19T18:37:42.819Z,9.58
2023-02-19T18:39:45.826Z,9.58
2023-02-19T18:41:50.901Z,9.56
2023-02-19T18:43:53.678Z,9.56
2023-02-19T18:45:56.472Z,9.57
2023-02-19T18:47:59.221Z,9.57
2023-02-19T18:50:03.611Z,9.56
2023-02-19T18:52:06.642Z,9.55
2023-02-19T18:54:09.920Z,9.53
2023-02-19T18:56:14.016Z,9.54
2023-02-19T18:58:17.020Z,9.55
2023-02-19T19:00:23.556Z,9.54
2023-02-19T19:02:29.738Z,9.53
2023-02-19T19:04:38.092Z,9.51
2023-02-19T19:06:41.466Z,9.49
2023-02-19T19:08:44.630Z,9.50
2023-02-19T19:10:47.452Z,9.52
2023-02-19T19:12:50.843Z,9.54
2023-02-19T19:14:53.900Z,9.54
2023-02-19T19:16:56.641Z,9.54
2023-02-19T19:18:59.239Z,9.55
2023-02-19T19:21:03.528Z,9.53
2023-02-19T19:23:09.189Z,9.54
2023-02-19T19:25:12.115Z,9.54
2023-02-19T19:27:15.067Z,9.53
2023-02-19T19:29:20.943Z,9.50
2023-02-19T19:31:27.469Z,9.47
2023-02-19T19:33:30.616Z,9.47
2023-02-19T19:35:34.107Z,9.47
2023-02-19T19:37:36.800Z,9.45
2023-02-19T19:39:39.900Z,9.43
2023-02-19T19:41:42.871Z,9.43
2023-02-19T19:43:46.992Z,9.41
2023-02-19T19:45:50.734Z,9.39
2023-02-19T19:47:54.490Z,9.38
2023-02-19T19:49:58.228Z,9.35
2023-02-19T19:52:01.299Z,9.33
2023-02-19T19:54:04.222Z,9.31
2023-02-19T19:56:07.306Z,9.28
2023-02-19T19:58:11.016Z,9.30
2023-02-19T20:00:16.120Z,9.30
2023-02-19T20:02:19.321Z,9.28
2023-02-19T20:04:24.150Z,9.27
2023-02-19T20:06:30.969Z,9.27
2023-02-19T20:08:33.958Z,9.26
2023-02-19T20:10:39.079Z,9.25
2023-02-19T20:12:41.948Z,9.24
2023-02-19T20:14:46.733Z,9.25
2023-02-19T20:16:50.700Z,9.23
2023-02-19T20:18:54.655Z,9.23
2023-02-19T20:20:57.254Z,9.24
2023-02-19T20:22:59.954Z,9.26
2023-02-19T20:25:02.773Z,9.27
2023-02-19T20:27:07.919Z,9.29
2023-02-19T20:29:10.853Z,9.31
2023-02-19T20:31:14.111Z,9.34
2023-02-19T20:33:18.435Z,9.36
2023-02-19T20:35:21.708Z,9.38
2023-02-19T20:37:24.636Z,9.37
2023-02-19T20:39:29.274Z,9.35
2023-02-19T20:41:33.616Z,9.35
2023-02-19T20:43:36.801Z,9.34
2023-02-19T20:45:41.022Z,9.34
2023-02-19T20:47:43.705Z,9.36
2023-02-19T20:49:46.834Z,9.37
2023-02-19T20:51:51.852Z,9.36
2023-02-19T20:53:54.548Z,9.35
2023-02-19T20:55:57.766Z,9.34
2023-02-19T20:58:00.596Z,9.34
2023-02-19T21:00:05.193Z,9.34
2023-02-19T21:02:14.349Z,9.34
2023-02-19T21:04:19.181Z,9.32
2023-02-19T21:06:22.643Z,9.31
2023-02-19T21:08:25.305Z,9.28
2023-02-19T21:10:28.060Z,9.28
2023-02-19T21:12:32.031Z,9.29
2023-02-19T21:14:34.980Z,9.31
2023-02-19T21:16:37.712Z,9.31
2023-02-19T21:18:40.474Z,9.31
2023-02-19T21:20:46.936Z,9.31
2023-02-19T21:22:49.684Z,9.32
2023-02-19T21:24:53.224Z,9.33
2023-02-19T21:26:57.490Z,9.32
2023-02-19T21:29:00.560Z,9.30
2023-02-19T21:31:03.297Z,9.27
2023-02-19T21:33:06.436Z,9.25
2023-02-19T21:35:09.267Z,9.25
2023-02-19T21:37:12.317Z,9.26
2023-02-19T21:39:18.361Z,9.27
2023-02-19T21:41:21.374Z,9.29
2023-02-19T21:43:24.318Z,9.28
2023-02-19T21:45:26.964Z,9.29
2023-02-19T21:47:30.230Z,9.29
2023-02-19T21:49:32.918Z,9.28
2023-02-19T21:51:39.320Z,9.25
2023-02-19T21:53:42.448Z,9.23
2023-02-19T21:55:57.955Z,9.20
2023-02-19T21:58:01.468Z,9.18
2023-02-19T22:00:05.190Z,9.16
2023-02-19T22:02:09.280Z,9.17
2023-02-19T22:04:17.146Z,9.18
2023-02-19T22:06:24.264Z,9.20
2023-02-19T22:08:26.896Z,9.21
2023-02-19T22:10:30.252Z,9.22
2023-02-19T22:12:32.932Z,9.23
2023-02-19T22:14:35.899Z,9.22
2023-02-19T22:16:38.759Z,9.21
2023-02-19T22:18:47.180Z,9.18
2023-02-19T22:20:49.776Z,9.16
2023-02-19T22:22:54.606Z,9.13
2023-02-19T22:24:57.445Z,9.10
2023-02-19T22:27:00.472Z,9.09
2023-02-19T22:29:07.309Z,9.10
2023-02-19T22:31:10.225Z,9.10
2023-02-19T22:33:12.962Z,9.10
2023-02-19T22:35:15.994Z,9.09
2023-02-19T22:37:18.722Z,9.08
2023-02-19T22:39:24.730Z,9.08
2023-02-19T22:41:27.318Z,9.06
2023-02-19T22:43:30.296Z,9.06
2023-02-19T22:45:32.798Z,9.06
2023-02-19T22:47:35.607Z,9.05
2023-02-19T22:49:39.513Z,9.01
2023-02-19T22:51:49.096Z,8.96
2023-02-19T22:53:54.654Z,8.95
2023-02-19T22:55:57.397Z,8.96
2023-02-19T22:58:00.212Z,8.96
2023-02-19T23:00:07.591Z,8.98
2023-02-19T23:02:10.517Z,8.99
2023-02-19T23:04:13.355Z,8.99
2023-02-19T23:06:21.790Z,8.99
2023-02-19T23:08:24.658Z,8.98
2023-02-19T23:10:28.321Z,8.97
2023-02-19T23:12:31.027Z,8.96
2023-02-19T23:14:34.112Z,8.92
2023-02-19T23:16:37.108Z,8.91
2023-02-19T23:18:39.771Z,8.89
2023-02-19T23:20:42.429Z,8.89
2023-02-19T23:22:45.178Z,8.90
2023-02-19T23:24:47.860Z,8.94
2023-02-19T23:26:52.800Z,8.94
2023-02-19T23:28:55.729Z,8.94
2023-02-19T23:30:58.493Z,8.94
2023-02-19T23:33:01.214Z,8.94
2023-02-19T23:35:03.865Z,8.96
2023-02-19T23:37:06.746Z,8.95
2023-02-19T23:39:12.061Z,8.94
2023-02-19T23:41:16.374Z,8.91
2023-02-19T23:43:19.009Z,8.88
2023-02-19T23:45:23.560Z,8.89
2023-02-19T23:47:26.865Z,8.91
2023-02-19T23:49:29.532Z,8.91
2023-02-19T23:51:32.198Z,8.93
2023-02-19T23:53:35.058Z,8.93
2023-02-19T23:55:37.680Z,8.94
2023-02-19T23:57:40.509Z,8.95
2023-02-19T23:59:44.882Z,8.95
